sensor_id;sensor_type;location;lat;lon;timestamp;P1;durP1;ratioP1;P2;durP2;ratioP2
9524;SDS011;15940;48.734;9.112;2023-04-02T00:07:58;0.40;;;0.40;;
9524;SDS011;15940;48.734;9.112;2023-04-02T00:10:30;1.70;;;0.87;;
9524;SDS011;15940;48.734;9.112;2023-04-02T00:13:01;0.50;;;0.50;;
9524;SDS011;15940;48.734;9.112;2023-04-02T00:15:31;1.03;;;0.40;;
9524;SDS011;15940;48.734;9.112;2023-04-02T00:17:59;0.60;;;0.60;;
9524;SDS011;15940;48.734;9.112;2023-04-02T00:20:26;0.50;;;0.50;;
9524;SDS011;15940;48.734;9.112;2023-04-02T00:22:56;0.40;;;0.40;;
9524;SDS011;15940;48.734;9.112;2023-04-02T00:25:24;0.67;;;0.60;;
9524;SDS011;15940;48.734;9.112;2023-04-02T00:27:54;0.57;;;0.57;;
9524;SDS011;15940;48.734;9.112;2023-04-02T00:30:22;0.30;;;0.30;;
9524;SDS011;15940;48.734;9.112;2023-04-02T00:32:49;0.60;;;0.60;;
9524;SDS011;15940;48.734;9.112;2023-04-02T00:35:18;0.97;;;0.50;;
9524;SDS011;15940;48.734;9.112;2023-04-02T00:37:50;0.97;;;0.43;;
9524;SDS011;15940;48.734;9.112;2023-04-02T00:40:19;0.60;;;0.60;;
9524;SDS011;15940;48.734;9.112;2023-04-02T00:42:50;0.67;;;0.53;;
9524;SDS011;15940;48.734;9.112;2023-04-02T00:45:23;0.70;;;0.60;;
9524;SDS011;15940;48.734;9.112;2023-04-02T00:47:53;1.60;;;0.60;;
9524;SDS011;15940;48.734;9.112;2023-04-02T00:50:23;0.50;;;0.50;;
9524;SDS011;15940;48.734;9.112;2023-04-02T00:52:57;0.97;;;0.50;;
9524;SDS011;15940;48.734;9.112;2023-04-02T00:55:31;0.60;;;0.60;;
9524;SDS011;15940;48.734;9.112;2023-04-02T00:58:03;1.07;;;0.67;;
9524;SDS011;15940;48.734;9.112;2023-04-02T01:00:41;0.60;;;0.60;;
9524;SDS011;15940;48.734;9.112;2023-04-02T01:03:28;0.67;;;0.50;;
9524;SDS011;15940;48.734;9.112;2023-04-02T01:06:03;0.73;;;0.57;;
9524;SDS011;15940;48.734;9.112;2023-04-02T01:08:42;0.87;;;0.50;;
9524;SDS011;15940;48.734;9.112;2023-04-02T01:11:27;0.50;;;0.50;;
9524;SDS011;15940;48.734;9.112;2023-04-02T01:14:15;0.40;;;0.40;;
9524;SDS011;15940;48.734;9.112;2023-04-02T01:16:54;0.70;;;0.70;;
9524;SDS011;15940;48.734;9.112;2023-04-02T01:19:34;0.43;;;0.43;;
9524;SDS011;15940;48.734;9.112;2023-04-02T01:22:25;0.50;;;0.50;;
9524;SDS011;15940;48.734;9.112;2023-04-02T01:24:59;0.73;;;0.60;;
9524;SDS011;15940;48.734;9.112;2023-04-02T01:27:28;0.47;;;0.40;;
9524;SDS011;15940;48.734;9.112;2023-04-02T01:30:06;0.57;;;0.50;;
9524;SDS011;15940;48.734;9.112;2023-04-02T01:32:35;0.63;;;0.63;;
9524;SDS011;15940;48.734;9.112;2023-04-02T01:35:04;0.60;;;0.60;;
9524;SDS011;15940;48.734;9.112;2023-04-02T01:37:34;0.40;;;0.40;;
9524;SDS011;15940;48.734;9.112;2023-04-02T01:40:12;0.60;;;0.60;;
9524;SDS011;15940;48.734;9.112;2023-04-02T01:42:55;0.47;;;0.40;;
9524;SDS011;15940;48.734;9.112;2023-04-02T01:45:32;0.50;;;0.50;;
9524;SDS011;15940;48.734;9.112;2023-04-02T01:47:59;0.30;;;0.30;;
9524;SDS011;15940;48.734;9.112;2023-04-02T01:50:33;2.00;;;0.90;;
9524;SDS011;15940;48.734;9.112;2023-04-02T01:53:02;0.30;;;0.30;;
9524;SDS011;15940;48.734;9.112;2023-04-02T01:55:34;0.40;;;0.40;;
9524;SDS011;15940;48.734;9.112;2023-04-02T01:58:08;0.50;;;0.50;;
9524;SDS011;15940;48.734;9.112;2023-04-02T02:00:39;0.43;;;0.43;;
9524;SDS011;15940;48.734;9.112;2023-04-02T02:03:11;2.17;;;0.70;;
9524;SDS011;15940;48.734;9.112;2023-04-02T02:05:39;0.47;;;0.40;;
9524;SDS011;15940;48.734;9.112;2023-04-02T02:08:06;0.60;;;0.60;;
9524;SDS011;15940;48.734;9.112;2023-04-02T02:10:52;0.50;;;0.50;;
9524;SDS011;15940;48.734;9.112;2023-04-02T02:13:19;2.53;;;0.67;;
9524;SDS011;15940;48.734;9.112;2023-04-02T02:15:48;0.60;;;0.60;;
9524;SDS011;15940;48.734;9.112;2023-04-02T02:18:18;1.07;;;0.60;;
9524;SDS011;15940;48.734;9.112;2023-04-02T02:20:47;1.00;;;0.60;;
9524;SDS011;15940;48.734;9.112;2023-04-02T02:23:15;0.30;;;0.30;;
9524;SDS011;15940;48.734;9.112;2023-04-02T02:25:43;1.73;;;0.50;;
9524;SDS011;15940;48.734;9.112;2023-04-02T02:28:13;2.00;;;0.40;;
9524;SDS011;15940;48.734;9.112;2023-04-02T02:30:44;0.80;;;0.50;;
9524;SDS011;15940;48.734;9.112;2023-04-02T02:33:16;1.17;;;0.67;;
9524;SDS011;15940;48.734;9.112;2023-04-02T02:35:51;0.70;;;0.70;;
9524;SDS011;15940;48.734;9.112;2023-04-02T02:38:25;0.50;;;0.50;;
9524;SDS011;15940;48.734;9.112;2023-04-02T02:41:05;0.97;;;0.53;;
9524;SDS011;15940;48.734;9.112;2023-04-02T02:43:40;0.50;;;0.50;;
9524;SDS011;15940;48.734;9.112;2023-04-02T02:46:15;0.80;;;0.53;;
9524;SDS011;15940;48.734;9.112;2023-04-02T02:48:46;2.20;;;0.70;;
9524;SDS011;15940;48.734;9.112;2023-04-02T02:51:16;0.60;;;0.60;;
9524;SDS011;15940;48.734;9.112;2023-04-02T02:53:50;0.87;;;0.50;;
9524;SDS011;15940;48.734;9.112;2023-04-02T02:56:22;0.50;;;0.50;;
9524;SDS011;15940;48.734;9.112;2023-04-02T02:58:50;0.57;;;0.57;;
9524;SDS011;15940;48.734;9.112;2023-04-02T03:01:18;0.60;;;0.60;;
9524;SDS011;15940;48.734;9.112;2023-04-02T03:03:47;0.67;;;0.67;;
9524;SDS011;15940;48.734;9.112;2023-04-02T03:06:19;0.60;;;0.60;;
9524;SDS011;15940;48.734;9.112;2023-04-02T03:08:47;1.13;;;0.63;;
9524;SDS011;15940;48.734;9.112;2023-04-02T03:11:23;0.80;;;0.80;;
9524;SDS011;15940;48.734;9.112;2023-04-02T03:14:01;2.10;;;1.00;;
9524;SDS011;15940;48.734;9.112;2023-04-02T03:16:37;0.90;;;0.90;;
9524;SDS011;15940;48.734;9.112;2023-04-02T03:19:14;1.17;;;0.93;;
9524;SDS011;15940;48.734;9.112;2023-04-02T03:21:54;0.93;;;0.93;;
9524;SDS011;15940;48.734;9.112;2023-04-02T03:24:29;1.30;;;1.20;;
9524;SDS011;15940;48.734;9.112;2023-04-02T03:27:02;2.13;;;0.80;;
9524;SDS011;15940;48.734;9.112;2023-04-02T03:29:37;1.70;;;0.90;;
9524;SDS011;15940;48.734;9.112;2023-04-02T03:32:11;1.10;;;0.60;;
9524;SDS011;15940;48.734;9.112;2023-04-02T03:34:43;1.73;;;1.03;;
9524;SDS011;15940;48.734;9.112;2023-04-02T03:37:16;1.37;;;0.77;;
9524;SDS011;15940;48.734;9.112;2023-04-02T03:39:49;1.20;;;0.87;;
9524;SDS011;15940;48.734;9.112;2023-04-02T03:42:20;1.00;;;0.90;;
9524;SDS011;15940;48.734;9.112;2023-04-02T03:44:51;1.27;;;0.70;;
9524;SDS011;15940;48.734;9.112;2023-04-02T03:47:24;1.07;;;0.70;;
9524;SDS011;15940;48.734;9.112;2023-04-02T03:50:02;0.70;;;0.70;;
9524;SDS011;15940;48.734;9.112;2023-04-02T03:52:37;0.93;;;0.70;;
9524;SDS011;15940;48.734;9.112;2023-04-02T03:55:08;0.60;;;0.60;;
9524;SDS011;15940;48.734;9.112;2023-04-02T03:57:41;0.53;;;0.53;;
9524;SDS011;15940;48.734;9.112;2023-04-02T04:00:19;0.70;;;0.70;;
9524;SDS011;15940;48.734;9.112;2023-04-02T04:02:53;0.60;;;0.60;;
9524;SDS011;15940;48.734;9.112;2023-04-02T04:05:26;0.60;;;0.60;;
9524;SDS011;15940;48.734;9.112;2023-04-02T04:07:58;1.33;;;0.80;;
9524;SDS011;15940;48.734;9.112;2023-04-02T04:10:30;0.60;;;0.60;;
9524;SDS011;15940;48.734;9.112;2023-04-02T04:13:00;0.53;;;0.53;;
9524;SDS011;15940;48.734;9.112;2023-04-02T04:15:33;0.70;;;0.60;;
9524;SDS011;15940;48.734;9.112;2023-04-02T04:18:04;0.87;;;0.70;;
9524;SDS011;15940;48.734;9.112;2023-04-02T04:20:40;0.93;;;0.70;;
9524;SDS011;15940;48.734;9.112;2023-04-02T04:23:16;0.70;;;0.60;;
9524;SDS011;15940;48.734;9.112;2023-04-02T04:25:58;0.60;;;0.60;;
9524;SDS011;15940;48.734;9.112;2023-04-02T04:28:35;0.60;;;0.50;;
9524;SDS011;15940;48.734;9.112;2023-04-02T04:31:11;2.13;;;0.90;;
9524;SDS011;15940;48.734;9.112;2023-04-02T04:33:46;0.87;;;0.80;;
9524;SDS011;15940;48.734;9.112;2023-04-02T04:36:21;1.40;;;0.90;;
9524;SDS011;15940;48.734;9.112;2023-04-02T04:38:53;0.80;;;0.80;;
9524;SDS011;15940;48.734;9.112;2023-04-02T04:41:25;0.60;;;0.60;;
9524;SDS011;15940;48.734;9.112;2023-04-02T04:43:58;5.40;;;1.00;;
9524;SDS011;15940;48.734;9.112;2023-04-02T04:46:33;0.80;;;0.80;;
9524;SDS011;15940;48.734;9.112;2023-04-02T04:49:08;0.80;;;0.70;;
9524;SDS011;15940;48.734;9.112;2023-04-02T04:51:42;0.63;;;0.63;;
9524;SDS011;15940;48.734;9.112;2023-04-02T04:54:16;1.10;;;0.63;;
9524;SDS011;15940;48.734;9.112;2023-04-02T04:56:44;2.00;;;0.60;;
9524;SDS011;15940;48.734;9.112;2023-04-02T04:59:15;0.83;;;0.50;;
9524;SDS011;15940;48.734;9.112;2023-04-02T05:01:49;1.03;;;0.77;;
9524;SDS011;15940;48.734;9.112;2023-04-02T05:04:21;1.10;;;0.70;;
9524;SDS011;15940;48.734;9.112;2023-04-02T05:06:56;0.70;;;0.70;;
9524;SDS011;15940;48.734;9.112;2023-04-02T05:09:29;0.70;;;0.70;;
9524;SDS011;15940;48.734;9.112;2023-04-02T05:12:04;1.33;;;0.60;;
9524;SDS011;15940;48.734;9.112;2023-04-02T05:14:41;0.37;;;0.37;;
9524;SDS011;15940;48.734;9.112;2023-04-02T05:17:16;0.60;;;0.60;;
9524;SDS011;15940;48.734;9.112;2023-04-02T05:19:48;0.60;;;0.60;;
9524;SDS011;15940;48.734;9.112;2023-04-02T05:22:24;0.67;;;0.60;;
9524;SDS011;15940;48.734;9.112;2023-04-02T05:25:00;0.40;;;0.40;;
9524;SDS011;15940;48.734;9.112;2023-04-02T05:27:40;0.77;;;0.60;;
9524;SDS011;15940;48.734;9.112;2023-04-02T05:30:17;1.30;;;0.63;;
9524;SDS011;15940;48.734;9.112;2023-04-02T05:33:05;0.60;;;0.60;;
9524;SDS011;15940;48.734;9.112;2023-04-02T05:35:50;1.70;;;0.93;;
9524;SDS011;15940;48.734;9.112;2023-04-02T05:38:26;0.60;;;0.60;;
9524;SDS011;15940;48.734;9.112;2023-04-02T05:41:00;0.77;;;0.77;;
9524;SDS011;15940;48.734;9.112;2023-04-02T05:43:33;0.63;;;0.63;;
9524;SDS011;15940;48.734;9.112;2023-04-02T05:46:05;1.23;;;0.70;;
9524;SDS011;15940;48.734;9.112;2023-04-02T05:48:41;1.87;;;0.73;;
9524;SDS011;15940;48.734;9.112;2023-04-02T05:51:11;1.23;;;0.83;;
9524;SDS011;15940;48.734;9.112;2023-04-02T05:53:47;0.70;;;0.70;;
9524;SDS011;15940;48.734;9.112;2023-04-02T05:56:19;0.77;;;0.70;;
9524;SDS011;15940;48.734;9.112;2023-04-02T05:58:51;1.73;;;0.90;;
9524;SDS011;15940;48.734;9.112;2023-04-02T06:01:28;1.50;;;1.00;;
9524;SDS011;15940;48.734;9.112;2023-04-02T06:04:02;1.13;;;0.67;;
9524;SDS011;15940;48.734;9.112;2023-04-02T06:06:45;0.60;;;0.60;;
9524;SDS011;15940;48.734;9.112;2023-04-02T06:09:21;1.47;;;0.80;;
9524;SDS011;15940;48.734;9.112;2023-04-02T06:11:59;1.03;;;0.73;;
9524;SDS011;15940;48.734;9.112;2023-04-02T06:14:37;1.57;;;0.80;;
9524;SDS011;15940;48.734;9.112;2023-04-02T06:17:04;1.53;;;0.60;;
9524;SDS011;15940;48.734;9.112;2023-04-02T06:19:32;1.00;;;1.00;;
9524;SDS011;15940;48.734;9.112;2023-04-02T06:22:07;1.20;;;0.83;;
9524;SDS011;15940;48.734;9.112;2023-04-02T06:24:45;2.73;;;1.63;;
9524;SDS011;15940;48.734;9.112;2023-04-02T06:27:20;1.97;;;0.80;;
9524;SDS011;15940;48.734;9.112;2023-04-02T06:29:52;0.93;;;0.93;;
9524;SDS011;15940;48.734;9.112;2023-04-02T06:32:24;1.00;;;0.83;;
9524;SDS011;15940;48.734;9.112;2023-04-02T06:34:52;0.90;;;0.90;;
9524;SDS011;15940;48.734;9.112;2023-04-02T06:37:21;0.90;;;0.90;;
9524;SDS011;15940;48.734;9.112;2023-04-02T06:39:54;1.70;;;0.90;;
9524;SDS011;15940;48.734;9.112;2023-04-02T06:42:22;0.93;;;0.93;;
9524;SDS011;15940;48.734;9.112;2023-04-02T06:44:53;0.97;;;0.90;;
9524;SDS011;15940;48.734;9.112;2023-04-02T06:47:25;0.67;;;0.67;;
9524;SDS011;15940;48.734;9.112;2023-04-02T06:49:57;1.00;;;0.90;;
9524;SDS011;15940;48.734;9.112;2023-04-02T06:52:32;1.17;;;0.80;;
9524;SDS011;15940;48.734;9.112;2023-04-02T06:55:06;0.90;;;0.90;;
9524;SDS011;15940;48.734;9.112;2023-04-02T06:57:53;0.87;;;0.73;;
9524;SDS011;15940;48.734;9.112;2023-04-02T07:00:22;1.90;;;0.80;;
9524;SDS011;15940;48.734;9.112;2023-04-02T07:02:56;1.40;;;0.80;;
9524;SDS011;15940;48.734;9.112;2023-04-02T07:05:26;1.60;;;0.90;;
9524;SDS011;15940;48.734;9.112;2023-04-02T07:07:53;0.80;;;0.80;;
9524;SDS011;15940;48.734;9.112;2023-04-02T07:10:22;1.40;;;0.80;;
9524;SDS011;15940;48.734;9.112;2023-04-02T07:12:49;1.20;;;0.77;;
9524;SDS011;15940;48.734;9.112;2023-04-02T07:15:16;1.90;;;0.83;;
9524;SDS011;15940;48.734;9.112;2023-04-02T07:17:44;1.07;;;0.90;;
9524;SDS011;15940;48.734;9.112;2023-04-02T07:20:19;1.43;;;0.80;;
9524;SDS011;15940;48.734;9.112;2023-04-02T07:22:53;1.83;;;0.90;;
9524;SDS011;15940;48.734;9.112;2023-04-02T07:25:22;0.77;;;0.77;;
9524;SDS011;15940;48.734;9.112;2023-04-02T07:27:49;0.60;;;0.60;;
9524;SDS011;15940;48.734;9.112;2023-04-02T07:30:16;1.60;;;0.90;;
9524;SDS011;15940;48.734;9.112;2023-04-02T07:32:44;0.80;;;0.80;;
9524;SDS011;15940;48.734;9.112;2023-04-02T07:35:11;1.43;;;0.97;;
9524;SDS011;15940;48.734;9.112;2023-04-02T07:37:38;0.70;;;0.70;;
9524;SDS011;15940;48.734;9.112;2023-04-02T07:40:06;1.80;;;0.80;;
9524;SDS011;15940;48.734;9.112;2023-04-02T07:42:43;0.60;;;0.60;;
9524;SDS011;15940;48.734;9.112;2023-04-02T07:45:10;0.87;;;0.70;;
9524;SDS011;15940;48.734;9.112;2023-04-02T07:47:38;0.77;;;0.70;;
9524;SDS011;15940;48.734;9.112;2023-04-02T07:50:05;1.23;;;0.80;;
9524;SDS011;15940;48.734;9.112;2023-04-02T07:52:37;0.93;;;0.93;;
9524;SDS011;15940;48.734;9.112;2023-04-02T07:55:06;1.20;;;0.60;;
9524;SDS011;15940;48.734;9.112;2023-04-02T07:57:36;0.80;;;0.80;;
9524;SDS011;15940;48.734;9.112;2023-04-02T08:00:08;0.83;;;0.80;;
9524;SDS011;15940;48.734;9.112;2023-04-02T08:02:38;2.03;;;0.93;;
9524;SDS011;15940;48.734;9.112;2023-04-02T08:05:05;0.83;;;0.80;;
9524;SDS011;15940;48.734;9.112;2023-04-02T08:07:34;0.77;;;0.77;;
9524;SDS011;15940;48.734;9.112;2023-04-02T08:10:03;0.80;;;0.63;;
9524;SDS011;15940;48.734;9.112;2023-04-02T08:12:32;0.60;;;0.60;;
9524;SDS011;15940;48.734;9.112;2023-04-02T08:14:59;0.83;;;0.80;;
9524;SDS011;15940;48.734;9.112;2023-04-02T08:17:27;0.77;;;0.77;;
9524;SDS011;15940;48.734;9.112;2023-04-02T08:19:55;0.80;;;0.80;;
9524;SDS011;15940;48.734;9.112;2023-04-02T08:22:24;0.80;;;0.80;;
9524;SDS011;15940;48.734;9.112;2023-04-02T08:24:52;0.63;;;0.63;;
9524;SDS011;15940;48.734;9.112;2023-04-02T08:27:20;1.53;;;1.00;;
9524;SDS011;15940;48.734;9.112;2023-04-02T08:29:47;1.27;;;0.80;;
9524;SDS011;15940;48.734;9.112;2023-04-02T08:32:14;0.87;;;0.87;;
9524;SDS011;15940;48.734;9.112;2023-04-02T08:34:43;0.77;;;0.70;;
9524;SDS011;15940;48.734;9.112;2023-04-02T08:37:11;0.70;;;0.70;;
9524;SDS011;15940;48.734;9.112;2023-04-02T08:39:38;0.60;;;0.60;;
9524;SDS011;15940;48.734;9.112;2023-04-02T08:42:07;0.73;;;0.70;;
9524;SDS011;15940;48.734;9.112;2023-04-02T08:44:48;0.80;;;0.63;;
9524;SDS011;15940;48.734;9.112;2023-04-02T08:47:31;0.70;;;0.70;;
9524;SDS011;15940;48.734;9.112;2023-04-02T08:50:03;0.60;;;0.60;;
9524;SDS011;15940;48.734;9.112;2023-04-02T08:52:39;1.20;;;0.80;;
9524;SDS011;15940;48.734;9.112;2023-04-02T08:55:10;1.07;;;0.70;;
9524;SDS011;15940;48.734;9.112;2023-04-02T08:57:50;0.63;;;0.63;;
9524;SDS011;15940;48.734;9.112;2023-04-02T09:00:26;1.00;;;0.57;;
9524;SDS011;15940;48.734;9.112;2023-04-02T09:03:01;1.80;;;0.80;;
9524;SDS011;15940;48.734;9.112;2023-04-02T09:05:38;0.50;;;0.50;;
9524;SDS011;15940;48.734;9.112;2023-04-02T09:08:13;1.10;;;0.63;;
9524;SDS011;15940;48.734;9.112;2023-04-02T09:10:46;0.57;;;0.57;;
9524;SDS011;15940;48.734;9.112;2023-04-02T09:13:19;2.00;;;1.00;;
9524;SDS011;15940;48.734;9.112;2023-04-02T09:15:50;0.90;;;0.90;;
9524;SDS011;15940;48.734;9.112;2023-04-02T09:18:26;0.73;;;0.73;;
9524;SDS011;15940;48.734;9.112;2023-04-02T09:20:56;0.50;;;0.50;;
9524;SDS011;15940;48.734;9.112;2023-04-02T09:23:24;1.80;;;0.90;;
9524;SDS011;15940;48.734;9.112;2023-04-02T09:25:52;0.60;;;0.60;;
9524;SDS011;15940;48.734;9.112;2023-04-02T09:28:20;1.10;;;0.60;;
9524;SDS011;15940;48.734;9.112;2023-04-02T09:30:56;1.47;;;0.80;;
9524;SDS011;15940;48.734;9.112;2023-04-02T09:33:39;1.20;;;1.20;;
9524;SDS011;15940;48.734;9.112;2023-04-02T09:36:16;1.23;;;1.20;;
9524;SDS011;15940;48.734;9.112;2023-04-02T09:39:14;1.50;;;1.40;;
9524;SDS011;15940;48.734;9.112;2023-04-02T09:41:43;1.47;;;1.20;;
9524;SDS011;15940;48.734;9.112;2023-04-02T09:44:18;2.03;;;1.10;;
9524;SDS011;15940;48.734;9.112;2023-04-02T09:46:54;1.73;;;1.40;;
9524;SDS011;15940;48.734;9.112;2023-04-02T09:49:24;1.60;;;1.50;;
9524;SDS011;15940;48.734;9.112;2023-04-02T09:52:06;0.83;;;0.83;;
9524;SDS011;15940;48.734;9.112;2023-04-02T09:54:45;1.07;;;1.07;;
9524;SDS011;15940;48.734;9.112;2023-04-02T09:57:31;1.23;;;1.13;;
9524;SDS011;15940;48.734;9.112;2023-04-02T10:00:08;2.43;;;1.43;;
9524;SDS011;15940;48.734;9.112;2023-04-02T10:02:42;1.80;;;1.70;;
9524;SDS011;15940;48.734;9.112;2023-04-02T10:05:14;1.10;;;1.10;;
9524;SDS011;15940;48.734;9.112;2023-04-02T10:07:47;2.03;;;1.93;;
9524;SDS011;15940;48.734;9.112;2023-04-02T10:10:18;1.30;;;1.23;;
9524;SDS011;15940;48.734;9.112;2023-04-02T10:12:50;1.10;;;1.10;;
9524;SDS011;15940;48.734;9.112;2023-04-02T10:15:25;1.03;;;1.03;;
9524;SDS011;15940;48.734;9.112;2023-04-02T10:18:04;0.90;;;0.90;;
9524;SDS011;15940;48.734;9.112;2023-04-02T10:20:37;0.90;;;0.90;;
9524;SDS011;15940;48.734;9.112;2023-04-02T10:23:10;1.43;;;1.37;;
9524;SDS011;15940;48.734;9.112;2023-04-02T10:25:43;1.17;;;1.10;;
9524;SDS011;15940;48.734;9.112;2023-04-02T10:28:21;1.10;;;1.00;;
9524;SDS011;15940;48.734;9.112;2023-04-02T10:31:11;1.80;;;1.70;;
9524;SDS011;15940;48.734;9.112;2023-04-02T10:33:49;1.00;;;1.00;;
9524;SDS011;15940;48.734;9.112;2023-04-02T10:36:23;1.20;;;1.20;;
9524;SDS011;15940;48.734;9.112;2023-04-02T10:39:06;0.90;;;0.90;;
9524;SDS011;15940;48.734;9.112;2023-04-02T10:41:45;1.23;;;1.03;;
9524;SDS011;15940;48.734;9.112;2023-04-02T10:44:20;1.20;;;1.10;;
9524;SDS011;15940;48.734;9.112;2023-04-02T10:47:10;0.87;;;0.87;;
9524;SDS011;15940;48.734;9.112;2023-04-02T10:49:53;0.90;;;0.90;;
9524;SDS011;15940;48.734;9.112;2023-04-02T10:52:31;2.10;;;1.20;;
9524;SDS011;15940;48.734;9.112;2023-04-02T10:55:06;1.10;;;1.00;;
9524;SDS011;15940;48.734;9.112;2023-04-02T10:57:43;0.80;;;0.80;;
9524;SDS011;15940;48.734;9.112;2023-04-02T11:00:15;0.80;;;0.80;;
9524;SDS011;15940;48.734;9.112;2023-04-02T11:02:51;1.03;;;0.70;;
9524;SDS011;15940;48.734;9.112;2023-04-02T11:05:25;1.00;;;1.00;;
9524;SDS011;15940;48.734;9.112;2023-04-02T11:08:03;0.70;;;0.70;;
9524;SDS011;15940;48.734;9.112;2023-04-02T11:10:39;1.00;;;0.90;;
9524;SDS011;15940;48.734;9.112;2023-04-02T11:13:14;1.00;;;1.00;;
9524;SDS011;15940;48.734;9.112;2023-04-02T11:15:49;1.30;;;1.30;;
9524;SDS011;15940;48.734;9.112;2023-04-02T11:18:24;1.07;;;1.00;;
9524;SDS011;15940;48.734;9.112;2023-04-02T11:20:59;0.60;;;0.60;;
9524;SDS011;15940;48.734;9.112;2023-04-02T11:23:29;0.90;;;0.90;;
9524;SDS011;15940;48.734;9.112;2023-04-02T11:26:28;3.13;;;1.37;;
9524;SDS011;15940;48.734;9.112;2023-04-02T11:29:07;0.70;;;0.70;;
9524;SDS011;15940;48.734;9.112;2023-04-02T11:31:45;0.60;;;0.60;;
9524;SDS011;15940;48.734;9.112;2023-04-02T11:34:14;0.50;;;0.40;;
9524;SDS011;15940;48.734;9.112;2023-04-02T11:37:06;2.10;;;1.90;;
9524;SDS011;15940;48.734;9.112;2023-04-02T11:39:45;0.70;;;0.70;;
9524;SDS011;15940;48.734;9.112;2023-04-02T11:42:23;0.93;;;0.93;;
9524;SDS011;15940;48.734;9.112;2023-04-02T11:44:53;0.50;;;0.50;;
9524;SDS011;15940;48.734;9.112;2023-04-02T11:47:24;0.60;;;0.60;;
9524;SDS011;15940;48.734;9.112;2023-04-02T11:49:59;0.70;;;0.70;;
9524;SDS011;15940;48.734;9.112;2023-04-02T11:52:31;0.83;;;0.70;;
9524;SDS011;15940;48.734;9.112;2023-04-02T11:55:23;0.70;;;0.70;;
9524;SDS011;15940;48.734;9.112;2023-04-02T12:01:19;0.50;;;0.50;;
9524;SDS011;15940;48.734;9.112;2023-04-02T12:04:15;0.40;;;0.40;;
9524;SDS011;15940;48.734;9.112;2023-04-02T12:07:31;0.60;;;0.60;;
9524;SDS011;15940;48.734;9.112;2023-04-02T12:10:16;0.57;;;0.57;;
9524;SDS011;15940;48.734;9.112;2023-04-02T12:12:45;0.20;;;0.20;;
9524;SDS011;15940;48.734;9.112;2023-04-02T12:15:32;0.57;;;0.57;;
9524;SDS011;15940;48.734;9.112;2023-04-02T12:18:11;0.33;;;0.33;;
9524;SDS011;15940;48.734;9.112;2023-04-02T12:20:44;0.80;;;0.40;;
9524;SDS011;15940;48.734;9.112;2023-04-02T12:23:18;0.43;;;0.43;;
9524;SDS011;15940;48.734;9.112;2023-04-02T12:25:54;0.83;;;0.27;;
9524;SDS011;15940;48.734;9.112;2023-04-02T12:28:23;0.20;;;0.20;;
9524;SDS011;15940;48.734;9.112;2023-04-02T12:31:00;1.50;;;1.40;;
9524;SDS011;15940;48.734;9.112;2023-04-02T12:33:31;2.77;;;2.50;;
9524;SDS011;15940;48.734;9.112;2023-04-02T12:36:02;2.27;;;2.07;;
9524;SDS011;15940;48.734;9.112;2023-04-02T12:38:34;2.13;;;2.03;;
9524;SDS011;15940;48.734;9.112;2023-04-02T12:41:18;6.97;;;4.13;;
9524;SDS011;15940;48.734;9.112;2023-04-02T12:43:57;1.30;;;1.20;;
9524;SDS011;15940;48.734;9.112;2023-04-02T12:46:27;1.73;;;1.63;;
9524;SDS011;15940;48.734;9.112;2023-04-02T12:48:57;0.43;;;0.43;;
9524;SDS011;15940;48.734;9.112;2023-04-02T12:51:30;0.20;;;0.20;;
9524;SDS011;15940;48.734;9.112;2023-04-02T12:53:57;0.43;;;0.43;;
9524;SDS011;15940;48.734;9.112;2023-04-02T12:56:25;0.37;;;0.37;;
9524;SDS011;15940;48.734;9.112;2023-04-02T12:58:52;0.40;;;0.40;;
9524;SDS011;15940;48.734;9.112;2023-04-02T13:01:22;0.27;;;0.27;;
9524;SDS011;15940;48.734;9.112;2023-04-02T13:04:01;0.30;;;0.30;;
9524;SDS011;15940;48.734;9.112;2023-04-02T13:06:30;0.50;;;0.50;;
9524;SDS011;15940;48.734;9.112;2023-04-02T13:08:58;0.50;;;0.50;;
9524;SDS011;15940;48.734;9.112;2023-04-02T13:11:33;0.70;;;0.70;;
9524;SDS011;15940;48.734;9.112;2023-04-02T13:14:02;0.80;;;0.80;;
9524;SDS011;15940;48.734;9.112;2023-04-02T13:16:32;0.90;;;0.90;;
9524;SDS011;15940;48.734;9.112;2023-04-02T13:19:21;1.27;;;1.27;;
9524;SDS011;15940;48.734;9.112;2023-04-02T13:21:53;1.40;;;1.30;;
9524;SDS011;15940;48.734;9.112;2023-04-02T13:24:22;1.87;;;1.77;;
9524;SDS011;15940;48.734;9.112;2023-04-02T13:26:52;0.80;;;0.80;;
9524;SDS011;15940;48.734;9.112;2023-04-02T13:29:23;0.80;;;0.80;;
9524;SDS011;15940;48.734;9.112;2023-04-02T13:31:56;1.23;;;1.23;;
9524;SDS011;15940;48.734;9.112;2023-04-02T13:34:26;0.90;;;0.90;;
9524;SDS011;15940;48.734;9.112;2023-04-02T13:36:54;1.53;;;1.47;;
9524;SDS011;15940;48.734;9.112;2023-04-02T13:39:21;1.50;;;1.40;;
9524;SDS011;15940;48.734;9.112;2023-04-02T13:41:49;2.00;;;1.90;;
9524;SDS011;15940;48.734;9.112;2023-04-02T13:44:21;1.30;;;1.30;;
9524;SDS011;15940;48.734;9.112;2023-04-02T13:46:51;1.30;;;1.30;;
9524;SDS011;15940;48.734;9.112;2023-04-02T13:49:18;1.87;;;1.30;;
9524;SDS011;15940;48.734;9.112;2023-04-02T13:51:48;1.53;;;1.50;;
9524;SDS011;15940;48.734;9.112;2023-04-02T13:54:18;1.57;;;1.47;;
9524;SDS011;15940;48.734;9.112;2023-04-02T13:56:49;1.60;;;1.50;;
9524;SDS011;15940;48.734;9.112;2023-04-02T13:59:16;1.67;;;1.57;;
9524;SDS011;15940;48.734;9.112;2023-04-02T14:01:44;1.90;;;1.80;;
9524;SDS011;15940;48.734;9.112;2023-04-02T14:04:14;2.20;;;2.10;;
9524;SDS011;15940;48.734;9.112;2023-04-02T14:06:49;1.97;;;1.87;;
9524;SDS011;15940;48.734;9.112;2023-04-02T14:09:40;1.97;;;1.87;;
9524;SDS011;15940;48.734;9.112;2023-04-02T14:12:22;2.80;;;1.97;;
9524;SDS011;15940;48.734;9.112;2023-04-02T14:15:07;2.60;;;2.40;;
9524;SDS011;15940;48.734;9.112;2023-04-02T14:17:52;1.90;;;1.80;;
9524;SDS011;15940;48.734;9.112;2023-04-02T14:20:41;2.03;;;1.90;;
9524;SDS011;15940;48.734;9.112;2023-04-02T14:23:21;2.17;;;2.07;;
9524;SDS011;15940;48.734;9.112;2023-04-02T14:26:05;2.13;;;2.03;;
9524;SDS011;15940;48.734;9.112;2023-04-02T14:28:40;2.60;;;2.40;;
9524;SDS011;15940;48.734;9.112;2023-04-02T14:31:22;1.97;;;1.87;;
9524;SDS011;15940;48.734;9.112;2023-04-02T14:33:58;2.10;;;2.00;;
9524;SDS011;15940;48.734;9.112;2023-04-02T14:36:34;2.90;;;2.70;;
9524;SDS011;15940;48.734;9.112;2023-04-02T14:39:16;2.60;;;2.40;;
9524;SDS011;15940;48.734;9.112;2023-04-02T14:41:51;1.97;;;1.87;;
9524;SDS011;15940;48.734;9.112;2023-04-02T14:44:23;2.90;;;2.70;;
9524;SDS011;15940;48.734;9.112;2023-04-02T14:46:58;1.93;;;1.83;;
9524;SDS011;15940;48.734;9.112;2023-04-02T14:49:39;3.33;;;2.10;;
9524;SDS011;15940;48.734;9.112;2023-04-02T14:52:11;2.27;;;2.17;;
9524;SDS011;15940;48.734;9.112;2023-04-02T14:54:45;2.37;;;2.17;;
9524;SDS011;15940;48.734;9.112;2023-04-02T14:57:18;2.23;;;2.13;;
9524;SDS011;15940;48.734;9.112;2023-04-02T14:59:52;2.00;;;1.90;;
9524;SDS011;15940;48.734;9.112;2023-04-02T15:02:29;2.10;;;2.00;;
9524;SDS011;15940;48.734;9.112;2023-04-02T15:05:10;2.80;;;2.60;;
9524;SDS011;15940;48.734;9.112;2023-04-02T15:07:44;2.23;;;2.13;;
9524;SDS011;15940;48.734;9.112;2023-04-02T15:10:21;2.50;;;2.30;;
9524;SDS011;15940;48.734;9.112;2023-04-02T15:12:53;2.40;;;2.30;;
9524;SDS011;15940;48.734;9.112;2023-04-02T15:15:25;2.67;;;2.57;;
9524;SDS011;15940;48.734;9.112;2023-04-02T15:18:08;2.87;;;2.50;;
9524;SDS011;15940;48.734;9.112;2023-04-02T15:20:38;2.30;;;2.20;;
9524;SDS011;15940;48.734;9.112;2023-04-02T15:23:18;2.37;;;2.27;;
9524;SDS011;15940;48.734;9.112;2023-04-02T15:26:08;1.97;;;1.87;;
9524;SDS011;15940;48.734;9.112;2023-04-02T15:28:45;2.37;;;2.27;;
9524;SDS011;15940;48.734;9.112;2023-04-02T15:31:19;2.20;;;2.00;;
9524;SDS011;15940;48.734;9.112;2023-04-02T15:33:53;2.23;;;2.13;;
9524;SDS011;15940;48.734;9.112;2023-04-02T15:39:55;2.00;;;1.90;;
9524;SDS011;15940;48.734;9.112;2023-04-02T15:42:55;2.10;;;2.00;;
9524;SDS011;15940;48.734;9.112;2023-04-02T15:45:28;1.83;;;1.73;;
9524;SDS011;15940;48.734;9.112;2023-04-02T15:48:20;2.20;;;2.00;;
9524;SDS011;15940;48.734;9.112;2023-04-02T15:51:12;2.20;;;2.10;;
9524;SDS011;15940;48.734;9.112;2023-04-02T15:53:52;2.63;;;2.50;;
9524;SDS011;15940;48.734;9.112;2023-04-02T15:56:29;3.37;;;3.07;;